Time;durP1;ratioP1;P1;durP2;ratioP2;P2;SDS_P1;SDS_P2;PMS_P1;PMS_P2;Temp;Humidity;BMP_temperature;BMP_pressure;BME280_temperature;BME280_humidity;BME280_pressure;Samples;Min_cycle;Max_cycle;Signal;HPM_P1;HPM_P2
2022/10/11 00:00:33;;;;;;;0.38;0.38;;;;;;;9.44;85.07;100047.28;5084687;28;20025;-68
2022/10/11 00:02:58;;;;;;;0.40;0.40;;;;;;;9.48;85.32;100063.69;5085160;28;20026;-68
2022/10/11 00:05:24;;;;;;;0.40;0.40;;;;;;;9.47;85.28;100052.47;5067318;28;20052;-68
2022/10/11 00:07:50;;;;;;;0.50;0.50;;;;;;;9.54;84.07;100056.72;5085478;28;20025;-68
2022/10/11 00:10:16;;;;;;;0.40;0.40;;;;;;;9.36;84.80;100041.34;5085330;28;20028;-69
2022/10/11 00:12:41;;;;;;;0.50;0.50;;;;;;;9.51;83.78;100048.09;5085493;28;20028;-68
2022/10/11 00:15:10;;;;;;;0.40;0.40;;;;;;;9.58;83.96;100067.03;5085298;28;20028;-69
2022/10/11 00:17:35;;;;;;;0.40;0.40;;;;;;;9.61;83.74;100069.59;5067395;28;20055;-69
2022/10/11 00:20:01;;;;;;;0.40;0.40;;;;;;;9.64;83.72;100060.06;5085094;28;20028;-69
2022/10/11 00:22:26;;;;;;;0.40;0.40;;;;;;;9.66;82.49;100073.00;5085222;28;20024;-68
2022/10/11 00:24:51;;;;;;;0.40;0.40;;;;;;;9.58;82.78;100054.09;5084982;28;20190;-68
2022/10/11 00:27:18;;;;;;;0.43;0.43;;;;;;;9.67;82.53;100046.22;5085289;28;20464;-67
2022/10/11 00:29:43;;;;;;;0.40;0.40;;;;;;;9.69;82.95;100072.97;5085393;28;20024;-69
2022/10/11 00:32:09;;;;;;;0.40;0.40;;;;;;;9.78;83.14;100072.00;5085195;28;20094;-68
2022/10/11 00:34:34;;;;;;;0.40;0.40;;;;;;;9.79;82.49;100073.75;5085027;28;20081;-68
2022/10/11 00:37:00;;;;;;;0.40;0.40;;;;;;;9.81;82.75;100068.56;5085130;28;20028;-69
2022/10/11 00:39:25;;;;;;;0.73;0.73;;;;;;;9.73;82.72;100063.44;5085025;28;20036;-69
2022/10/11 00:41:51;;;;;;;0.40;0.40;;;;;;;9.71;82.53;100060.88;5084888;28;20028;-68
2022/10/11 00:44:22;;;;;;;0.40;0.40;;;;;;;9.86;82.43;100080.56;5084931;28;20028;-69
2022/10/11 00:46:55;;;;;;;0.50;0.50;;;;;;;9.94;82.79;100066.66;5085102;28;20029;-69
2022/10/11 00:49:34;;;;;;;0.45;0.45;;;;;;;9.96;83.28;100072.69;5084874;28;20024;-69
2022/10/11 00:52:30;;;;;;;0.40;0.40;;;;;;;10.02;82.39;100088.19;5066993;28;20057;-67
2022/10/11 00:54:58;;;;;;;0.60;0.60;;;;;;;9.91;82.00;100090.91;5066853;28;20025;-69
2022/10/11 00:57:28;;;;;;;0.40;0.40;;;;;;;10.04;82.11;100079.53;5084903;28;20029;-68
2022/10/11 00:59:54;;;;;;;0.45;0.45;;;;;;;10.02;81.41;100080.41;5085039;28;20103;-69
2022/10/11 01:02:22;;;;;;;0.40;0.40;;;;;;;9.90;81.56;100056.31;5084882;28;20025;-69
2022/10/11 01:04:49;;;;;;;0.40;0.40;;;;;;;10.06;82.33;100081.22;5084560;28;20024;-67
2022/10/11 01:07:15;;;;;;;0.70;0.70;;;;;;;9.97;81.73;100071.84;5084929;28;20025;-67
2022/10/11 01:09:41;;;;;;;0.70;0.70;;;;;;;10.02;82.64;100085.59;5084784;28;20033;-67
2022/10/11 01:12:17;;;;;;;0.40;0.40;;;;;;;9.97;83.08;100053.69;5087762;28;20073;-69
2022/10/11 01:15:02;;;;;;;0.40;0.40;;;;;;;10.13;82.10;100083.72;5088364;28;20057;-67
2022/10/11 01:17:48;;;;;;;0.40;0.40;;;;;;;10.14;82.24;100077.66;5088369;28;20024;-69
2022/10/11 01:20:42;;;;;;;0.45;0.45;;;;;;;10.18;82.31;100073.31;5088138;28;20081;-67
2022/10/11 01:23:45;;;;;;;0.40;0.40;;;;;;;10.21;82.79;100072.44;4989969;28;20260;-67
2022/10/11 01:26:32;;;;;;;0.45;0.45;;;;;;;10.15;83.07;100074.22;5006512;28;20033;-69
2022/10/11 01:29:12;;;;;;;0.40;0.40;;;;;;;10.14;81.66;100079.41;4990320;28;20046;-68
2022/10/11 01:31:44;;;;;;;0.40;0.40;;;;;;;10.17;82.00;100081.97;5006561;28;20044;-68
2022/10/11 01:34:46;;;;;;;0.40;0.40;;;;;;;10.20;82.44;100084.53;5006322;28;20165;-68
2022/10/11 01:37:42;;;;;;;0.50;0.50;;;;;;;10.16;82.61;100086.28;4967385;29;20071;-68
2022/10/11 01:40:34;;;;;;;0.65;0.65;;;;;;;10.14;82.60;100082.84;4966053;29;20411;-67
2022/10/11 01:43:01;;;;;;;0.50;0.50;;;;;;;10.12;82.90;100091.53;4961456;29;20039;-68
2022/10/11 01:45:27;;;;;;;0.40;0.40;;;;;;;10.10;82.74;100085.50;4967356;28;20035;-68
2022/10/11 01:48:09;;;;;;;0.40;0.40;;;;;;;9.97;82.78;100069.25;4966818;29;20067;-69
2022/10/11 01:50:39;;;;;;;0.40;0.40;;;;;;;10.08;82.57;100082.09;4967258;28;20023;-69
2022/10/11 01:53:30;;;;;;;0.50;0.50;;;;;;;10.02;80.42;100093.38;4967179;29;20035;-69
2022/10/11 01:56:24;;;;;;;0.43;0.43;;;;;;;10.08;80.26;100076.91;4909962;29;20045;-68
2022/10/11 01:59:15;;;;;;;0.40;0.40;;;;;;;10.13;80.39;100090.66;4909769;29;20029;-68
2022/10/11 02:02:19;;;;;;;0.40;0.40;;;;;;;10.14;77.60;100090.63;4909571;29;20083;-69
2022/10/11 02:04:57;;;;;;;0.40;0.40;;;;;;;10.00;78.84;100082.19;4928644;29;20142;-68
2022/10/11 02:07:37;;;;;;;0.40;0.40;;;;;;;10.17;79.73;100094.94;4894080;29;20040;-69
2022/10/11 02:10:12;;;;;;;0.40;0.40;;;;;;;10.30;80.03;100080.09;4909787;29;20060;-65
2022/10/11 02:12:43;;;;;;;0.40;0.40;;;;;;;10.35;79.98;100103.38;4945155;28;20511;-68
2022/10/11 02:15:12;;;;;;;0.40;0.40;;;;;;;10.36;80.04;100108.56;4970070;28;20054;-68
2022/10/11 02:17:46;;;;;;;0.40;0.40;;;;;;;10.36;80.23;100105.97;4986179;28;20341;-68
2022/10/11 02:20:18;;;;;;;0.40;0.40;;;;;;;10.40;79.07;100102.44;4986160;28;20046;-68
2022/10/11 02:22:45;;;;;;;0.40;0.40;;;;;;;10.46;78.57;100106.75;4968727;28;20027;-67
2022/10/11 02:25:16;;;;;;;0.40;0.40;;;;;;;10.52;78.89;100104.06;4986152;28;20188;-68
2022/10/11 02:27:46;;;;;;;0.40;0.40;;;;;;;10.41;79.28;100087.72;4969915;28;20019;-68
2022/10/11 02:30:13;;;;;;;0.40;0.40;;;;;;;10.39;78.45;100116.28;4986345;28;20031;-68
2022/10/11 02:32:40;;;;;;;0.40;0.40;;;;;;;10.21;77.98;100085.41;5028178;28;20075;-69
2022/10/11 02:35:07;;;;;;;0.50;0.50;;;;;;;10.27;77.06;100108.66;5086768;28;20032;-68
2022/10/11 02:37:43;;;;;;;0.40;0.40;;;;;;;10.22;77.66;100103.53;5068814;28;20123;-67
2022/10/11 02:40:23;;;;;;;0.50;0.50;;;;;;;10.30;77.80;100111.22;5086921;28;20123;-67
2022/10/11 02:43:10;;;;;;;0.40;0.40;;;;;;;10.17;76.83;100108.75;5086992;28;20107;-68
2022/10/11 02:45:47;;;;;;;0.40;0.40;;;;;;;10.08;77.70;100108.84;5086703;28;20021;-68
2022/10/11 02:48:13;;;;;;;0.40;0.40;;;;;;;10.09;77.53;100120.09;5086625;28;20095;-68
2022/10/11 02:50:55;;;;;;;0.40;0.40;;;;;;;9.93;77.13;100099.53;5086922;28;20024;-69
2022/10/11 02:53:22;;;;;;;0.40;0.40;;;;;;;10.04;76.94;100105.47;5086667;28;20161;-69
2022/10/11 02:55:49;;;;;;;0.45;0.45;;;;;;;10.14;77.42;100101.00;5086628;28;20035;-68
2022/10/11 02:58:15;;;;;;;0.40;0.40;;;;;;;10.17;77.23;100126.91;5086393;28;20080;-69
2022/10/11 03:00:40;;;;;;;0.40;0.40;;;;;;;10.27;76.16;100093.09;5086398;28;20052;-69
2022/10/11 03:03:05;;;;;;;0.40;0.40;;;;;;;10.26;75.82;100130.28;5085966;28;20256;-69
2022/10/11 03:05:35;;;;;;;5.35;3.42;;;;;;;10.28;75.64;100123.34;5068401;28;20046;-69
2022/10/11 03:08:01;;;;;;;0.50;0.50;;;;;;;10.36;76.14;100128.44;5086504;28;20028;-69
2022/10/11 03:10:26;;;;;;;0.50;0.50;;;;;;;10.33;76.27;100141.44;5086337;28;20024;-69
2022/10/11 03:12:52;;;;;;;0.35;0.35;;;;;;;10.19;76.24;100110.50;5086341;28;20024;-69
2022/10/11 03:15:17;;;;;;;0.40;0.40;;;;;;;10.25;76.36;100131.16;5086045;28;20028;-70
2022/10/11 03:17:42;;;;;;;0.40;0.40;;;;;;;10.19;76.43;100123.47;5086171;28;20021;-70
2022/10/11 03:20:08;;;;;;;0.50;0.50;;;;;;;10.21;76.47;100142.47;5086035;28;20028;-70
2022/10/11 03:22:34;;;;;;;0.40;0.40;;;;;;;10.11;76.59;100120.94;5086077;28;20032;-70
2022/10/11 03:24:59;;;;;;;0.40;0.40;;;;;;;10.16;77.20;100129.53;5067782;28;20052;-69
2022/10/11 03:27:24;;;;;;;0.40;0.40;;;;;;;10.02;76.08;100127.94;5085132;28;20020;-69
2022/10/11 03:29:50;;;;;;;0.50;0.50;;;;;;;10.19;75.94;100142.50;5084793;28;20035;-70
2022/10/11 03:32:15;;;;;;;0.50;0.50;;;;;;;10.21;76.72;100140.72;5085508;28;20051;-70
2022/10/11 03:34:40;;;;;;;0.40;0.40;;;;;;;10.14;76.81;100129.53;5067538;28;20028;-69
2022/10/11 03:37:06;;;;;;;0.40;0.40;;;;;;;10.36;76.35;100131.91;5085708;28;20128;-68
2022/10/11 03:39:31;;;;;;;0.40;0.40;;;;;;;10.35;75.83;100150.09;5085848;28;20024;-70
2022/10/11 03:41:56;;;;;;;0.40;0.40;;;;;;;10.40;75.91;100156.06;5085869;28;20024;-70
2022/10/11 03:44:22;;;;;;;0.50;0.50;;;;;;;10.44;75.77;100147.38;5085543;28;20497;-68
2022/10/11 03:46:47;;;;;;;0.50;0.50;;;;;;;10.43;75.07;100144.81;5085818;28;20106;-70
2022/10/11 03:49:12;;;;;;;0.50;0.50;;;;;;;10.43;74.54;100145.69;5085634;28;20020;-69
2022/10/11 03:51:38;;;;;;;0.40;0.40;;;;;;;10.36;73.82;100155.25;5067789;28;20105;-69
2022/10/11 03:54:03;;;;;;;0.50;0.50;;;;;;;10.29;73.89;100146.69;5085481;28;20028;-69
2022/10/11 03:56:28;;;;;;;0.40;0.40;;;;;;;10.21;73.12;100138.13;5085688;28;20435;-68
2022/10/11 03:58:54;;;;;;;0.40;0.40;;;;;;;10.31;72.43;100163.97;5067222;28;20477;-69
2022/10/11 04:01:19;;;;;;;0.50;0.50;;;;;;;10.26;72.46;100141.53;5085635;28;20088;-68
2022/10/11 04:03:45;;;;;;;0.50;0.50;;;;;;;10.35;72.07;100176.03;5085415;28;20024;-69
2022/10/11 04:06:10;;;;;;;0.40;0.40;;;;;;;10.41;72.18;100174.22;5085583;28;20017;-69
2022/10/11 04:08:35;;;;;;;0.50;0.50;;;;;;;10.35;72.60;100169.09;5085434;28;20024;-69
2022/10/11 04:11:01;;;;;;;0.40;0.40;;;;;;;10.36;72.41;100151.81;5085369;28;20024;-69
2022/10/11 04:13:26;;;;;;;0.50;0.50;;;;;;;10.25;71.26;100164.91;5085427;28;20055;-69
2022/10/11 04:15:52;;;;;;;0.50;0.50;;;;;;;10.25;71.33;100157.13;5085295;28;20547;-70
2022/10/11 04:18:17;;;;;;;5.35;2.72;;;;;;;10.32;71.44;100182.09;5084992;28;20103;-69
2022/10/11 04:20:42;;;;;;;0.40;0.40;;;;;;;10.29;71.25;100179.53;5067401;28;20021;-70
2022/10/11 04:23:08;;;;;;;0.55;0.55;;;;;;;10.23;70.90;100182.22;5082410;28;20098;-70
2022/10/11 04:25:33;;;;;;;0.45;0.45;;;;;;;10.25;70.44;100190.84;5065800;28;20028;-69
2022/10/11 04:27:58;;;;;;;0.40;0.40;;;;;;;10.10;71.51;100171.09;5066530;28;20271;-69
2022/10/11 04:30:24;;;;;;;0.45;0.45;;;;;;;10.24;72.08;100187.38;5084728;28;20384;-70
2022/10/11 04:32:49;;;;;;;0.40;0.40;;;;;;;10.26;72.04;100190.81;5084348;28;20031;-66
2022/10/11 04:35:15;;;;;;;0.40;0.40;;;;;;;10.27;72.49;100189.09;5066827;28;20128;-69
2022/10/11 04:37:40;;;;;;;0.50;0.50;;;;;;;10.35;72.86;100182.06;5067213;28;20026;-67
2022/10/11 04:40:07;;;;;;;0.50;0.50;;;;;;;10.23;73.23;100182.22;5084953;28;20025;-69
2022/10/11 04:42:33;;;;;;;0.50;0.50;;;;;;;10.27;73.09;100200.31;5085227;28;20059;-68
2022/10/11 04:44:58;;;;;;;0.40;0.40;;;;;;;10.23;72.73;100200.38;5085102;28;20024;-69
2022/10/11 04:47:23;;;;;;;1.90;1.80;;;;;;;10.24;72.68;100207.28;5069828;28;20024;-70
2022/10/11 04:49:49;;;;;;;0.63;0.63;;;;;;;10.17;72.89;100198.72;5087665;28;20043;-70
2022/10/11 04:52:14;;;;;;;0.50;0.50;;;;;;;10.17;72.92;100207.31;5089111;28;20048;-69
2022/10/11 04:54:40;;;;;;;0.50;0.50;;;;;;;10.12;72.87;100203.94;5070557;28;20039;-67
2022/10/11 04:57:05;;;;;;;0.50;0.50;;;;;;;10.09;73.35;100222.13;5088848;28;20025;-68
2022/10/11 04:59:30;;;;;;;0.40;0.40;;;;;;;10.02;73.44;100191.91;5088721;28;20089;-68
2022/10/11 05:01:56;;;;;;;0.45;0.45;;;;;;;10.03;73.24;100211.81;5070678;28;20043;-69
2022/10/11 05:04:21;;;;;;;0.45;0.45;;;;;;;10.12;73.16;100221.22;5088572;28;20458;-68
2022/10/11 05:06:46;;;;;;;1.48;1.48;;;;;;;10.09;73.31;100216.06;5088782;28;20522;-68
2022/10/11 05:09:12;;;;;;;1.40;1.35;;;;;;;10.03;72.99;100217.84;5087505;28;20044;-68
2022/10/11 05:11:37;;;;;;;0.50;0.50;;;;;;;10.06;72.73;100226.47;5087201;28;20031;-68
2022/10/11 05:14:03;;;;;;;0.50;0.50;;;;;;;10.07;72.60;100223.88;5087490;28;20531;-68
2022/10/11 05:16:28;;;;;;;0.40;0.40;;;;;;;9.95;72.20;100240.41;5087520;28;20020;-70
2022/10/11 05:18:54;;;;;;;0.40;0.40;;;;;;;10.02;72.26;100238.59;5069196;28;20048;-70
2022/10/11 05:21:25;;;;;;;0.50;0.50;;;;;;;10.02;72.34;100243.78;5087320;28;20029;-69
2022/10/11 05:23:52;;;;;;;0.52;0.52;;;;;;;9.96;73.05;100259.41;5087008;28;20109;-68
2022/10/11 05:26:18;;;;;;;0.50;0.50;;;;;;;9.81;73.41;100232.72;5069292;28;20477;-67
2022/10/11 05:28:44;;;;;;;1.40;1.40;;;;;;;9.89;73.91;100261.19;5087347;28;20017;-68
2022/10/11 05:31:10;;;;;;;0.40;0.40;;;;;;;9.83;74.38;100262.09;5086097;28;20111;-68
2022/10/11 05:33:36;;;;;;;0.60;0.60;;;;;;;9.75;74.17;100254.38;5086848;28;20039;-70
2022/10/11 05:36:02;;;;;;;0.55;0.55;;;;;;;9.77;73.86;100257.84;5087287;28;20017;-69
2022/10/11 05:38:28;;;;;;;0.40;0.40;;;;;;;9.73;73.83;100274.28;5085553;28;20035;-69
2022/10/11 05:40:53;;;;;;;0.40;0.40;;;;;;;9.70;73.94;100265.66;5087383;28;20024;-69
2022/10/11 05:43:19;;;;;;;0.45;0.45;;;;;;;9.67;74.52;100271.72;5087122;28;20413;-69
2022/10/11 05:45:45;;;;;;;0.47;0.47;;;;;;;9.66;74.97;100275.19;5085552;28;20028;-68
2022/10/11 05:48:11;;;;;;;0.50;0.50;;;;;;;9.60;74.77;100281.25;5068994;28;20020;-69
2022/10/11 05:50:37;;;;;;;0.50;0.50;;;;;;;9.62;74.77;100302.00;5086592;28;20056;-68
2022/10/11 05:53:03;;;;;;;0.50;0.50;;;;;;;9.63;75.13;100295.97;5068701;28;20036;-67
2022/10/11 05:55:29;;;;;;;0.50;0.50;;;;;;;9.59;75.73;100291.63;5086508;28;20028;-67
2022/10/11 05:57:56;;;;;;;0.40;0.40;;;;;;;9.72;75.48;100290.72;5086620;28;20086;-68
2022/10/11 06:00:23;;;;;;;0.50;0.50;;;;;;;9.83;75.14;100301.00;5086638;28;20031;-68
2022/10/11 06:02:49;;;;;;;0.40;0.40;;;;;;;9.88;75.01;100299.25;5068571;28;20353;-67
2022/10/11 06:05:15;;;;;;;0.47;0.47;;;;;;;9.98;75.06;100312.13;5086372;28;20551;-68
2022/10/11 06:07:40;;;;;;;0.40;0.40;;;;;;;9.97;74.60;100311.25;5068455;28;20025;-68
2022/10/11 06:10:07;;;;;;;0.40;0.40;;;;;;;10.02;74.52;100324.19;5086331;28;20357;-68
2022/10/11 06:12:32;;;;;;;1.10;0.88;;;;;;;10.09;74.28;100322.44;5086297;28;20392;-68
2022/10/11 06:14:58;;;;;;;0.40;0.40;;;;;;;10.10;74.58;100316.34;5086277;28;20046;-69
2022/10/11 06:17:23;;;;;;;0.40;0.40;;;;;;;10.12;73.31;100320.69;5085064;28;20086;-68
2022/10/11 06:19:49;;;;;;;0.40;0.40;;;;;;;10.01;72.86;100307.78;5085976;28;20025;-69
2022/10/11 06:22:15;;;;;;;0.40;0.40;;;;;;;10.17;73.59;100334.44;5086204;28;20465;-69
2022/10/11 06:24:40;;;;;;;0.40;0.40;;;;;;;10.16;73.61;100327.56;5085889;28;20048;-69
2022/10/11 06:27:06;;;;;;;0.50;0.50;;;;;;;10.07;72.92;100316.38;5086276;28;20474;-70
2022/10/11 06:29:32;;;;;;;0.40;0.40;;;;;;;10.18;72.32;100345.69;5086251;28;20028;-68
2022/10/11 06:31:57;;;;;;;0.50;0.50;;;;;;;10.08;72.47;100329.34;5086011;28;20024;-68
2022/10/11 06:34:23;;;;;;;2.90;2.70;;;;;;;10.13;73.08;100348.31;5067691;28;20116;-68
2022/10/11 06:36:48;;;;;;;0.50;0.50;;;;;;;10.15;72.44;100348.31;5086159;28;20594;-69
2022/10/11 06:39:14;;;;;;;0.50;0.50;;;;;;;10.28;72.72;100341.31;5084487;28;20040;-69
2022/10/11 06:41:39;;;;;;;0.40;0.40;;;;;;;10.65;71.98;100348.78;5085932;28;20016;-68
2022/10/11 06:44:04;;;;;;;5.57;1.65;;;;;;;11.05;70.81;100349.25;5085566;28;20024;-69
2022/10/11 06:46:31;;;;;;;0.40;0.40;;;;;;;11.40;70.19;100350.56;5085113;28;20025;-69
2022/10/11 06:48:57;;;;;;;0.40;0.40;;;;;;;11.97;69.67;100362.78;5085496;28;20024;-68
2022/10/11 06:51:22;;;;;;;0.40;0.40;;;;;;;12.47;68.58;100370.72;5085758;28;20401;-68
2022/10/11 06:53:55;;;;;;;0.40;0.40;;;;;;;12.98;68.32;100352.44;5085741;28;20027;-69
2022/10/11 06:56:21;;;;;;;0.40;0.40;;;;;;;13.23;67.24;100354.56;5067372;28;20034;-68
2022/10/11 06:58:46;;;;;;;0.40;0.40;;;;;;;13.61;66.06;100346.88;5067524;28;20017;-68
2022/10/11 07:01:17;;;;;;;0.50;0.50;;;;;;;13.97;63.64;100364.31;5085552;28;20089;-69
2022/10/11 07:03:42;;;;;;;0.40;0.40;;;;;;;14.23;62.67;100355.00;5085070;28;20031;-68
2022/10/11 07:06:12;;;;;;;0.32;0.32;;;;;;;14.40;60.72;100370.25;5067491;28;20115;-69
2022/10/11 07:08:38;;;;;;;0.40;0.40;;;;;;;14.52;60.68;100396.97;5084904;28;20047;-69
2022/10/11 07:11:09;;;;;;;0.30;0.30;;;;;;;14.60;60.24;100380.19;5085321;28;20020;-69
2022/10/11 07:13:36;;;;;;;0.40;0.40;;;;;;;14.69;57.40;100375.63;5067385;28;20071;-69
2022/10/11 07:16:03;;;;;;;0.40;0.40;;;;;;;14.19;57.24;100387.28;5067209;28;20031;-69
2022/10/11 07:18:28;;;;;;;0.40;0.40;;;;;;;14.13;58.38;100389.19;5084964;28;20029;-68
2022/10/11 07:20:54;;;;;;;0.40;0.40;;;;;;;14.24;59.40;100398.50;5067324;28;20021;-69
2022/10/11 07:23:19;;;;;;;0.40;0.40;;;;;;;14.33;58.93;100398.25;5085076;28;20350;-69
2022/10/11 07:25:45;;;;;;;0.30;0.30;;;;;;;14.60;58.42;100418.53;5085064;28;20024;-69
2022/10/11 07:28:11;;;;;;;0.40;0.40;;;;;;;15.03;59.19;100415.72;5085516;28;20028;-69
2022/10/11 07:30:38;;;;;;;0.30;0.30;;;;;;;15.07;55.99;100419.97;5067260;28;20035;-68
2022/10/11 07:33:03;;;;;;;0.40;0.40;;;;;;;15.11;55.23;100409.38;5085162;28;20032;-68
2022/10/11 07:35:29;;;;;;;0.32;0.32;;;;;;;15.10;54.67;100425.09;5066760;28;20024;-68
2022/10/11 07:37:54;;;;;;;0.40;0.40;;;;;;;15.22;55.77;100432.63;5085262;28;20028;-67
2022/10/11 07:40:19;;;;;;;0.40;0.40;;;;;;;15.19;54.15;100429.25;5066974;28;20021;-69
2022/10/11 07:42:45;;;;;;;0.40;0.40;;;;;;;15.42;55.90;100440.81;5085006;28;20039;-69
2022/10/11 07:45:10;;;;;;;2.47;1.42;;;;;;;15.61;55.19;100447.25;5083411;28;20032;-69
2022/10/11 07:47:35;;;;;;;0.30;0.30;;;;;;;15.74;54.41;100431.16;5084844;28;20066;-68
2022/10/11 07:50:01;;;;;;;0.30;0.30;;;;;;;15.74;53.24;100439.91;5084731;28;20024;-68
2022/10/11 07:52:26;;;;;;;0.70;0.70;;;;;;;15.93;52.88;100455.03;5066764;28;20052;-68
2022/10/11 07:54:52;;;;;;;0.30;0.30;;;;;;;16.08;52.25;100461.63;5084722;28;20031;-69
2022/10/11 07:57:17;;;;;;;0.30;0.30;;;;;;;16.25;51.42;100454.97;5084761;28;20021;-70
2022/10/11 07:59:42;;;;;;;0.35;0.35;;;;;;;16.53;51.22;100464.59;5084715;28;20031;-69
2022/10/11 08:02:10;;;;;;;0.30;0.30;;;;;;;16.95;49.87;100471.06;5084816;28;20055;-69
2022/10/11 08:04:36;;;;;;;0.30;0.30;;;;;;;17.20;47.86;100453.66;5084403;28;20024;-69
2022/10/11 08:07:01;;;;;;;0.30;0.30;;;;;;;17.25;46.80;100471.84;5066691;28;20050;-69
2022/10/11 08:09:27;;;;;;;0.40;0.40;;;;;;;17.36;47.00;100463.59;5084740;28;20036;-69
2022/10/11 08:11:52;;;;;;;0.30;0.30;;;;;;;17.61;47.29;100471.44;5085039;28;20024;-69
2022/10/11 08:14:17;;;;;;;0.30;0.30;;;;;;;17.76;46.35;100475.25;5066636;28;20021;-69
2022/10/11 08:16:43;;;;;;;0.30;0.30;;;;;;;17.71;45.08;100457.06;5084664;28;20038;-69
2022/10/11 08:19:09;;;;;;;0.30;0.30;;;;;;;17.82;45.75;100472.41;5084274;28;20027;-69
2022/10/11 08:21:35;;;;;;;0.50;0.50;;;;;;;17.94;45.84;100481.56;5083464;28;20036;-70
2022/10/11 08:24:02;;;;;;;0.70;0.70;;;;;;;18.15;45.18;100478.19;5062857;28;20045;-70
2022/10/11 08:26:28;;;;;;;0.30;0.30;;;;;;;18.45;44.41;100443.75;5063184;28;20017;-69
2022/10/11 08:28:53;;;;;;;0.82;0.82;;;;;;;18.47;43.26;100486.56;5064342;28;20017;-70
2022/10/11 08:31:19;;;;;;;0.30;0.30;;;;;;;18.35;43.10;100487.06;5079746;28;20040;-68
2022/10/11 08:33:44;;;;;;;0.30;0.30;;;;;;;18.14;43.37;100487.88;5079664;28;20087;-66
2022/10/11 08:36:10;;;;;;;0.30;0.30;;;;;;;17.92;43.38;100490.44;5062959;28;20101;-68
2022/10/11 08:38:37;;;;;;;0.30;0.30;;;;;;;18.07;43.28;100507.34;5064148;28;20135;-68
2022/10/11 08:41:11;;;;;;;0.60;0.60;;;;;;;18.26;43.55;100499.66;5064323;28;20449;-68
2022/10/11 08:44:02;;;;;;;0.30;0.30;;;;;;;18.30;41.99;100511.78;5064200;28;20025;-68
2022/10/11 08:46:31;;;;;;;0.30;0.30;;;;;;;18.19;42.22;100511.34;5064214;28;20025;-69
2022/10/11 08:48:57;;;;;;;0.30;0.30;;;;;;;18.21;42.46;100512.13;5062362;28;20032;-68
2022/10/11 08:52:01;;;;;;;0.30;0.30;;;;;;;18.42;42.79;100515.69;5064279;28;20284;-68
2022/10/11 08:54:57;;;;;;;0.30;0.30;;;;;;;18.23;42.34;100523.41;5023152;28;20393;-69
2022/10/11 08:57:26;;;;;;;0.30;0.30;;;;;;;18.17;43.38;100521.03;5064244;28;20025;-69
2022/10/11 09:00:01;;;;;;;4.45;3.65;;;;;;;17.82;43.03;100508.31;5062700;28;20025;-69
2022/10/11 09:02:44;;;;;;;0.30;0.30;;;;;;;17.50;43.16;100528.69;5063967;28;20028;-69
2022/10/11 09:05:13;;;;;;;4.40;1.10;;;;;;;17.44;43.81;100537.66;5063743;28;20032;-69
2022/10/11 09:07:39;;;;;;;0.50;0.50;;;;;;;17.26;43.04;100531.28;5064120;28;20071;-70
2022/10/11 09:10:27;;;;;;;0.30;0.30;;;;;;;17.11;44.04;100543.16;5062733;28;20041;-68
2022/10/11 09:12:57;;;;;;;0.30;0.30;;;;;;;17.53;44.42;100536.47;5063942;28;20025;-68
2022/10/11 09:15:37;;;;;;;0.30;0.30;;;;;;;18.05;43.80;100535.47;5063839;28;20531;-69
2022/10/11 09:18:11;;;;;;;1.60;1.30;;;;;;;18.55;41.01;100523.06;5063945;28;20071;-68
2022/10/11 09:20:43;;;;;;;0.30;0.30;;;;;;;18.39;41.03;100528.06;5062351;28;20028;-68
2022/10/11 09:23:36;;;;;;;0.40;0.40;;;;;;;18.48;40.48;100548.75;5063603;28;20053;-68
2022/10/11 09:26:10;;;;;;;0.50;0.50;;;;;;;18.52;40.88;100547.72;5063747;28;20083;-69
2022/10/11 09:29:03;;;;;;;0.30;0.30;;;;;;;18.93;41.14;100557.47;5064505;28;20032;-67
2022/10/11 09:31:32;;;;;;;0.30;0.30;;;;;;;19.24;39.13;100546.59;5062703;28;20036;-69
2022/10/11 09:34:04;;;;;;;1.70;0.98;;;;;;;18.98;39.13;100566.97;5067400;28;20025;-70
2022/10/11 09:36:38;;;;;;;0.30;0.30;;;;;;;19.02;40.09;100572.03;5067023;28;20021;-68
2022/10/11 09:39:30;;;;;;;0.50;0.50;;;;;;;19.59;39.83;100577.59;5067245;28;20484;-68
2022/10/11 09:41:59;;;;;;;0.40;0.40;;;;;;;19.71;38.75;100577.06;5067322;28;20037;-68
2022/10/11 09:44:28;;;;;;;0.30;0.30;;;;;;;19.63;37.96;100577.38;5082482;28;20029;-68
2022/10/11 09:46:55;;;;;;;0.30;0.30;;;;;;;19.51;37.87;100580.56;5066777;28;20025;-68
2022/10/11 09:49:27;;;;;;;3.53;3.25;;;;;;;19.95;37.21;100590.06;5064167;28;20013;-69
2022/10/11 09:51:56;;;;;;;0.32;0.32;;;;;;;19.92;37.58;100574.41;5066554;28;20025;-69
2022/10/11 09:54:38;;;;;;;0.30;0.30;;;;;;;20.01;38.25;100592.44;5065186;28;20063;-68
2022/10/11 09:57:04;;;;;;;0.60;0.60;;;;;;;20.69;37.10;100584.94;5066301;28;20031;-69
2022/10/11 09:59:31;;;;;;;1.65;1.58;;;;;;;19.97;36.45;100606.63;5066395;28;20048;-68
2022/10/11 10:02:12;;;;;;;0.20;0.20;;;;;;;18.88;38.46;100600.69;5066647;28;20051;-67
2022/10/11 10:05:08;;;;;;;0.30;0.30;;;;;;;18.43;39.21;100584.88;5066105;28;20040;-68
2022/10/11 10:07:37;;;;;;;0.30;0.30;;;;;;;18.30;40.42;100609.00;5066464;28;20025;-68
2022/10/11 10:10:27;;;;;;;0.30;0.30;;;;;;;19.07;40.00;100606.03;5066337;28;20051;-67
2022/10/11 10:12:58;;;;;;;0.30;0.30;;;;;;;19.13;38.31;100612.84;5066349;28;20032;-67
2022/10/11 10:15:29;;;;;;;0.40;0.40;;;;;;;17.86;39.96;100617.56;5066177;28;20023;-67
2022/10/11 10:17:56;;;;;;;0.40;0.40;;;;;;;17.74;41.52;100613.63;5066269;28;20021;-67
2022/10/11 10:20:30;;;;;;;0.73;0.73;;;;;;;18.30;40.05;100609.00;5065953;28;20036;-68
2022/10/11 10:22:57;;;;;;;0.40;0.40;;;;;;;18.37;39.44;100599.09;5066118;28;20024;-68
2022/10/11 10:25:33;;;;;;;0.30;0.30;;;;;;;18.00;40.44;100632.84;5066203;28;20056;-68
2022/10/11 10:28:02;;;;;;;0.38;0.38;;;;;;;17.70;40.73;100625.13;5066190;28;20017;-68
2022/10/11 10:30:27;;;;;;;0.30;0.30;;;;;;;17.18;42.50;100631.22;5065943;28;20484;-68
2022/10/11 10:33:01;;;;;;;0.75;0.75;;;;;;;17.13;42.78;100641.88;5066027;28;20041;-69
2022/10/11 10:35:48;;;;;;;0.30;0.30;;;;;;;16.79;43.00;100638.50;5065549;28;20078;-68
2022/10/11 10:38:39;;;;;;;0.30;0.30;;;;;;;16.01;44.41;100647.75;5065896;28;20032;-68
2022/10/11 10:41:09;;;;;;;0.30;0.30;;;;;;;15.90;45.15;100634.91;5066015;28;20045;-68
2022/10/11 10:43:37;;;;;;;1.20;1.10;;;;;;;16.58;44.84;100647.91;5064942;28;20032;-68
2022/10/11 10:46:39;;;;;;;0.30;0.30;;;;;;;17.51;44.03;100656.41;5065687;28;20033;-69
2022/10/11 10:49:11;;;;;;;;;;;;;;;18.33;42.74;100645.69;5065861;28;20021;-68
2022/10/11 10:51:56;;;;;;;0.38;0.38;;;;;;;19.05;41.69;100655.22;5065705;28;19901;-69
2022/10/11 10:54:41;;;;;;;0.90;0.90;;;;;;;19.73;39.69;100643.69;5065597;28;20500;-68
2022/10/11 10:57:33;;;;;;;0.30;0.30;;;;;;;19.60;39.32;100664.41;5065667;28;20039;-69
2022/10/11 11:00:11;;;;;;;;;;;;;;;19.51;39.76;100665.69;5066009;28;20024;-69
2022/10/11 11:02:54;;;;;;;0.30;0.30;;;;;;;20.02;39.71;100669.69;5065404;28;19909;-68
2022/10/11 11:05:40;;;;;;;0.30;0.30;;;;;;;20.50;37.89;100669.34;5065224;28;20017;-69
2022/10/11 11:08:30;;;;;;;0.20;0.20;;;;;;;20.17;38.31;100657.63;5065527;28;20020;-68
2022/10/11 11:11:07;;;;;;;0.20;0.20;;;;;;;20.69;38.00;100674.63;5065556;28;20032;-68
2022/10/11 11:14:02;;;;;;;0.30;0.30;;;;;;;21.22;37.72;100677.44;5065402;28;20031;-69
2022/10/11 11:16:30;;;;;;;0.20;0.20;;;;;;;20.37;36.17;100675.19;5003205;28;20046;-67
2022/10/11 11:19:37;;;;;;;0.20;0.20;;;;;;;18.56;38.34;100682.53;5003099;28;20185;-68
2022/10/11 11:22:09;;;;;;;1.25;1.20;;;;;;;17.12;41.01;100687.38;4945102;29;20063;-68
2022/10/11 11:24:43;;;;;;;0.30;0.30;;;;;;;16.26;43.36;100695.09;4945116;29;20052;-68
2022/10/11 11:27:29;;;;;;;1.15;1.05;;;;;;;15.72;44.66;100687.72;4944999;29;20055;-69
2022/10/11 11:30:10;;;;;;;0.52;0.52;;;;;;;15.24;45.91;100696.72;4945306;29;20091;-68
2022/10/11 11:33:04;;;;;;;1.38;1.27;;;;;;;14.82;47.06;100689.81;4929139;29;20032;-67
2022/10/11 11:35:36;;;;;;;0.88;0.88;;;;;;;14.48;48.16;100683.50;4944754;29;20035;-68
2022/10/11 11:38:13;;;;;;;0.40;0.40;;;;;;;14.21;48.33;100691.00;4945024;29;20599;-68
2022/10/11 11:40:42;;;;;;;0.30;0.30;;;;;;;13.95;49.47;100692.34;4945151;29;20115;-69
2022/10/11 11:43:41;;;;;;;0.30;0.30;;;;;;;13.77;50.30;100691.78;4945171;29;20126;-67